Bettendorf, IA (52722)

4:58 PM CST on February 20, 2018 (GMT -0600)
Central Bettendorf | | Change Station
Active Advisory: Flood Warning

Elev 665 ft 41.53 °N, 90.50 °W | Updated 2 seconds ago

Fog
Fog
32.5 °F
Feels Like 25 °F
N
9.5
Wind Variable Wind from WNW
Gusts 10.3 mph

Today
High -- | Low -- °F
--% Chance of Precip.
Yesterday
High -- | Low -- °F
Precip. -- in
Pressure 30.10 in
Visibility 10.0 miles
Clouds Overcast 1600 ft
Windchill 25 °F
Dew Point 24 °F
Humidity 70%
Rainfall 1.29 in
Snow Depth Not available.
6:50 AM 5:41 PM
Waxing Crescent, 25% visible
METAR KMLI 202252Z 29010KT 10SM OVC016 00/M02 A3008 RMK AO2 UPE04 SLP191 P0000 T00001022
Pressure 30.10 in
Visibility 10.0 miles
Clouds Overcast 1600 ft
Windchill 25 °F
Dew Point 24 °F
Humidity 70%
Rainfall 1.29 in
Snow Depth Not available.
6:50 AM 5:41 PM
Waxing Crescent, 25% visible
METAR KMLI 202252Z 29010KT 10SM OVC016 00/M02 A3008 RMK AO2 UPE04 SLP191 P0000 T00001022

Get Your Daily Forecast Email!

Thanks for signing up!

Be on the lookout for a verification email in your inbox.

You'll start receiving severe weather alerts in your inbox..

×

10-Day Weather Forecast

Almanac

Astronomy

Feb. 20, 2018 Rise Set
Actual Time
Civil Twilight
Nautical Twilight
Astronomical Twilight
Moon
Length of Visible Light
Length of Day
Tomorrow will be .
, % of the Moon is Illuminated

Today's Extremes

State Highs State Lows

Community

WunderPhotos

Category 6

Welcome to Category 6. This is the collective home for Weather Underground's featured writeups by Dr. Jeff Masters (right), Bob Henson (left), Chris Burt, and other regular contributors.

Nearby

Air Quality

  Air Quality AQ Index Pollutant
Not available.

Snow Depth

Station Depth Elevation

Earthquake Activity

City Distance Mag. Time & Date
Minimum magnitude displayed is 2.5.

Coastal Water Temperatures

Place Temperature

Stations

Nearby Weather Stations

Station Location Temp. Windchill Dew Point Humidity Wind Precip. Elev Updated Type
                   

Watches & Warnings

Flood Warning
Issued: 3:23 PM CST Feb. 20, 2018 – National Weather Service

... Flood Warning remains in effect until Friday...

The Flood Warning continues for
the wapsipinicon river near De Witt 4s.
* Until Friday.
* At 2:30 PM Tuesday the stage was 11.1 feet and rising.
* Flood stage is 11.0 feet.
* Minor flooding is occurring and moderate flooding is forecast.
* Recent activity, the river continues to rise rapidly and is expected
to rise above moderate flood stage this evening.
* Forecast, rise to 12.3 feet Wednesday evening. Fall below flood
stage Friday.
* Impact, at 12.0 feet, overbank flooding occurs. Water affects
residences along the river between Wheatland and Calamus. Water
affects businesses along the river near Calamus.


Lat... Lon 4200 9090 4184 9071 4177 9033 4169 9035
      4171 9080 4185 9090